Flight Track Log - Related Links

Times and Time Zones

All times are in EDT time to prevent confusion due to time zone crossing. See the BJS439 flight status page for this flight to view local times or setup timezone preferences in your user account.

Time Position Orientation Groundspeed Altitude Reporting Facility
EDT Latitude Longitude Course Direction KTS MPH feet Rate Location/Type
Sun 09:35:38 AM 42.4667 -71.3000 270° West 205 236 1,000  Level KA90
Sun 09:36:02 AM 42.4667 -71.3333 270° West 189 217 1,500 2,211 Climbing KA90
Sun 09:37:51 AM 42.3981 -71.4392 229° Southwest 220 253 5,900 3,195 Climbing Boston Center
Sun 09:38:51 AM 42.3822 -71.5294 257° West 220 253 10,500 3,917 Climbing Boston Center
Sun 09:39:52 AM 42.3661 -71.6167 256° West 250 288 13,800 2,227 Climbing Boston Center
Sun 09:41:03 AM 42.3461 -71.7350 257° West 284 327 15,400 1,008 Climbing Boston Center
Sun 09:42:03 AM 42.3219 -71.8644 256° West 299 344 16,000 350 Climbing Boston Center
Sun 09:43:03 AM 42.2994 -71.9769 255° West 308 354 16,100 50 Climbing Boston Center
Sun 09:44:03 AM 42.2769 -72.0922 255° West 313 360 16,100  Level Boston Center
Sun 09:45:03 AM 42.2564 -72.2044 256° West 318 366 16,100  Level Boston Center
Sun 09:46:15 AM 42.2378 -72.3167 257° West 318 366 16,100  Level Boston Center
Sun 09:47:15 AM 42.2128 -72.4400 255° West 318 366 16,100  Level Boston Center
Sun 09:48:15 AM 42.1897 -72.5606 256° West 318 366 16,100  Level Boston Center
Sun 09:49:15 AM 42.1731 -72.6614 257° West 318 366 16,100  Level Boston Center
Sun 09:50:15 AM 42.1561 -72.7733 258° West 313 360 16,100  Level Boston Center
Sun 09:51:15 AM 42.1517 -72.8742 267° West 313 360 16,100  Level Boston Center
Sun 09:52:15 AM 42.1447 -73.0000 266° West 313 360 16,100  Level Boston Center
Sun 09:53:15 AM 42.1358 -73.1289 265° West 313 360 16,100  Level Boston Center
Sun 09:54:15 AM 42.1289 -73.2322 265° West 313 360 16,100 -50 Level Boston Center
Sun 09:55:15 AM 42.1175 -73.3608 263° West 313 360 16,000 -50 Descending Boston Center
Sun 09:56:15 AM 42.1100 -73.4783 265° West 313 360 16,000  Level Boston Center
Sun 09:57:15 AM 42.1006 -73.5956 264° West 313 360 16,000  Level Boston Center
Sun 09:58:15 AM 42.0956 -73.6850 266° West 313 360 16,000  Level Boston Center
Sun 09:59:15 AM 42.0836 -73.8247 263° West 313 360 16,000  Level Boston Center
Sun 10:00:15 AM 42.0758 -73.9392 265° West 313 360 16,000 -300 Level Boston Center
Sun 10:01:15 AM 42.0681 -74.0453 264° West 313 360 15,400 -1,300 Descending Boston Center
Sun 10:02:15 AM 42.0581 -74.1653 264° West 313 360 13,400 -1,700 Descending Boston Center
Sun 10:03:15 AM 41.9981 -74.2644 231° Southwest 319 367 12,000 -1,150 Descending Boston Center
Sun 10:04:15 AM 41.9283 -74.3181 210° Southwest 320 368 11,100 -950 Descending Boston Center
Sun 10:05:15 AM 41.8481 -74.3797 210° Southwest 315 362 10,100 -950 Descending Boston Center
Sun 10:06:15 AM 41.7869 -74.4253 209° Southwest 296 341 9,200 -1,000 Descending Boston Center
Sun 10:07:15 AM 41.7128 -74.4842 211° Southwest 291 335 8,100 -600 Descending Boston Center
Sun 10:08:15 AM 41.6536 -74.5294 210° Southwest 286 329 8,000 -50 Descending Boston Center
Sun 10:09:15 AM 41.5697 -74.5628 197° South 281 323 8,000  Level Boston Center
Sun 10:10:15 AM 41.4986 -74.5742 187° South 286 329 8,000 -100 Level Boston Center
Sun 10:11:15 AM 41.4128 -74.5908 188° South 291 335 7,800 -522 Descending Boston Center
Sun 10:11:47 AM 41.3667 -74.6000 188° South 289 333 7,200 -522 Descending New York TRACON
Sun 10:12:47 AM 41.3000 -74.6333 201° Southwest 279 321 7,000 -650 Descending New York TRACON
Sun 10:13:47 AM 41.2167 -74.6500 189° South 285 328 5,900 -1,250 Descending New York TRACON
Sun 10:14:47 AM 41.1333 -74.6333 171° South 278 320 4,500 -950 Descending New York TRACON
Sun 10:15:47 AM 41.0667 -74.6000 159° South 269 310 4,000 -263 Descending New York TRACON
Sun 10:16:41 AM 41.0167 -74.5833 166° South 264 304 4,000 -444 Level New York TRACON
Sun 10:17:35 AM 40.9500 -74.5333 150° Southeast 265 305 3,200 -526 Descending New York TRACON
Sun 10:18:35 AM 40.8833 -74.4833 150° Southeast 262 302 3,000 -100 Descending New York TRACON
Sun 10:19:35 AM 40.8167 -74.4333 150° Southeast 251 289 3,000  Level New York TRACON
Sun 10:20:35 AM 40.7667 -74.4000 153° Southeast 226 260 3,000 -474 Level New York TRACON
Sun 10:21:29 AM 40.7167 -74.3667 153° Southeast 211 243 2,100 -526 Descending New York TRACON
Sun 10:22:29 AM 40.7000 -74.3000 108° East 178 205 2,000 -100 Descending New York TRACON
Sun 10:23:29 AM 40.7333 -74.2500 49° Northeast 180 207 1,900 -250 Descending New York TRACON
Sun 10:24:29 AM 40.7667 -74.2000 49° Northeast 181 208 1,500 -200 Descending New York TRACON
Sun 10:25:29 AM 40.7833 -74.1500 66° East 175 201 1,500 -250 Level New York TRACON
Sun 10:26:29 AM 40.8167 -74.1167 37° Northeast 121 139 1,000 -579 Descending New York TRACON
Sun 10:27:23 AM 40.8333 -74.0833 57° Northeast 114 131 400 -667 Descending New York TRACON

Login

Don't have an account? Register now (free) for customized features, flight alerts, and more!